Time;durP1;ratioP1;P1;durP2;ratioP2;P2;SDS_P1;SDS_P2;PMS_P1;PMS_P2;Temp;Humidity;BMP_temperature;BMP_pressure;BME280_temperature;BME280_humidity;BME280_pressure;Samples;Min_cycle;Max_cycle;Signal;HPM_P1;HPM_P2
2022/03/20 00:00:25;;;;;;;;;;;;;;;4.51;55.44;93745.84;2055355;69;20134;-76
2022/03/20 00:02:52;;;;;;;;;;;;;;;4.66;54.41;93752.81;2055578;70;20477;-77
2022/03/20 00:05:17;;;;;;;;;;;;;;;4.25;57.22;93740.41;2055661;69;20046;-78
2022/03/20 00:07:44;;;;;;;;;;;;;;;4.98;53.91;93744.09;2055638;69;20050;-75
2022/03/20 00:10:10;;;;;;;;;;;;;;;4.65;55.32;93749.28;2055399;69;20134;-75
2022/03/20 00:12:37;;;;;;;;;;;;;;;4.61;55.38;93745.34;2068442;69;20046;-76
2022/03/20 00:15:03;;;;;;;;;;;;;;;4.34;55.77;93749.03;2055375;70;20054;-75
2022/03/20 00:17:29;;;;;;;;;;;;;;;4.52;54.98;93747.31;2068456;69;20123;-76
2022/03/20 00:19:54;;;;;;;;;;;;;;;4.50;55.48;93746.38;2055518;69;20430;-76
2022/03/20 00:22:20;;;;;;;;;;;;;;;4.94;53.05;93746.47;2055579;70;20161;-76
2022/03/20 00:24:46;;;;;;;;;;;;;;;4.43;55.62;93747.06;2055559;70;20493;-75
2022/03/20 00:27:12;;;;;;;;;;;;;;;4.40;55.44;93754.50;2068108;69;20046;-75
2022/03/20 00:29:39;;;;;;;;;;;;;;;4.43;54.73;93752.63;2055223;69;20513;-76
2022/03/20 00:32:05;;;;;;;;;;;;;;;4.14;56.05;93760.94;2055590;70;20058;-75
2022/03/20 00:34:30;;;;;;;;;;;;;;;4.32;55.28;93762.78;2055222;70;20109;-76
2022/03/20 00:36:56;;;;;;;;;;;;;;;4.29;55.13;93757.53;2055132;69;20082;-78
2022/03/20 00:39:21;;;;;;;;;;;;;;;4.79;53.50;93767.41;2055443;70;20053;-75
2022/03/20 00:41:47;;;;;;;;;;;;;;;4.38;55.42;93764.69;2055499;70;20043;-76
2022/03/20 00:44:14;;;;;;;;;;;;;;;4.75;52.02;93774.63;2055197;70;20569;-76
2022/03/20 00:46:39;;;;;;;;;;;;;;;4.39;55.09;93774.53;2055648;70;20057;-76
2022/03/20 00:49:07;;;;;;;;;;;;;;;4.06;56.62;93768.50;2068445;69;20054;-76
2022/03/20 00:51:33;;;;;;;;;;;;;;;4.10;56.87;93773.72;2055333;69;20111;-76
2022/03/20 00:53:59;;;;;;;;;;;;;;;4.05;56.88;93778.16;2055380;70;20059;-76
2022/03/20 00:56:25;;;;;;;;;;;;;;;4.03;56.28;93786.28;2068436;69;20481;-74
2022/03/20 00:58:50;;;;;;;;;;;;;;;4.12;55.47;93790.63;2055308;70;20070;-76
2022/03/20 01:01:16;;;;;;;;;;;;;;;4.01;56.87;93781.25;2068495;69;20061;-74
2022/03/20 01:03:42;;;;;;;;;;;;;;;4.14;55.36;93788.81;2055447;69;20050;-77
2022/03/20 01:06:08;;;;;;;;;;;;;;;3.99;56.03;93797.78;2054991;70;20050;-77
2022/03/20 01:08:34;;;;;;;;;;;;;;;3.92;56.63;93786.56;2068146;69;20062;-79
2022/03/20 01:11:00;;;;;;;;;;;;;;;3.99;56.40;93794.25;2055501;69;20253;-75
2022/03/20 01:13:26;;;;;;;;;;;;;;;3.88;57.09;93800.06;2068483;69;20066;-77
2022/03/20 01:15:51;;;;;;;;;;;;;;;3.59;57.93;93794.38;2055418;70;20038;-78
2022/03/20 01:18:17;;;;;;;;;;;;;;;3.77;57.29;93795.50;2055245;70;20062;-77
2022/03/20 01:20:42;;;;;;;;;;;;;;;4.22;53.81;93786.84;2055561;70;20050;-77
2022/03/20 01:23:08;;;;;;;;;;;;;;;3.73;56.90;93795.81;2055448;70;20057;-76
2022/03/20 01:25:34;;;;;;;;;;;;;;;3.72;56.74;93805.47;2068004;69;20046;-77
2022/03/20 01:27:59;;;;;;;;;;;;;;;3.79;56.74;93796.44;2065118;69;20047;-77
2022/03/20 01:30:24;;;;;;;;;;;;;;;3.91;55.97;93808.09;2054906;70;20051;-76
2022/03/20 01:32:50;;;;;;;;;;;;;;;3.83;56.50;93799.66;2067879;69;20070;-77
2022/03/20 01:35:17;;;;;;;;;;;;;;;4.08;55.24;93810.50;2055098;70;20143;-78
2022/03/20 01:37:42;;;;;;;;;;;;;;;3.95;55.43;93811.31;2067800;69;20055;-78
2022/03/20 01:40:08;;;;;;;;;;;;;;;3.79;56.63;93818.72;2054917;70;20504;-77
2022/03/20 01:42:38;;;;;;;;;;;;;;;3.71;56.60;93828.28;2054723;69;20093;-77
2022/03/20 01:45:17;;;;;;;;;;;;;;;3.59;56.84;93816.63;2054907;70;20116;-76
2022/03/20 01:47:47;;;;;;;;;;;;;;;3.55;57.56;93813.44;2055048;69;20042;-73
2022/03/20 01:50:13;;;;;;;;;;;;;;;3.78;56.60;93808.88;2055411;69;20082;-76
2022/03/20 01:52:39;;;;;;;;;;;;;;;3.87;55.24;93807.69;2055340;69;20084;-77
2022/03/20 01:55:06;;;;;;;;;;;;;;;3.86;55.73;93811.75;2068599;69;20481;-78
2022/03/20 01:57:36;;;;;;;;;;;;;;;3.80;56.49;93819.47;2068639;69;20039;-78
2022/03/20 02:00:03;;;;;;;;;;;;;;;3.56;57.20;93806.56;2055582;70;20409;-77
2022/03/20 02:02:38;;;;;;;;;;;;;;;3.38;58.31;93807.47;2055646;69;20201;-75
2022/03/20 02:05:06;;;;;;;;;;;;;;;3.49;57.96;93818.38;2055686;70;20173;-76
2022/03/20 02:07:34;;;;;;;;;;;;;;;3.56;58.46;93818.47;2055830;70;20054;-75
2022/03/20 02:10:01;;;;;;;;;;;;;;;3.56;57.25;93815.66;2055803;69;20054;-77
2022/03/20 02:12:26;;;;;;;;;;;;;;;3.47;57.25;93815.38;2055875;70;20070;-76
2022/03/20 02:14:53;;;;;;;;;;;;;;;3.57;57.11;93810.84;2055449;69;20484;-75
2022/03/20 02:17:19;;;;;;;;;;;;;;;3.54;56.48;93811.94;2055285;70;20065;-76
2022/03/20 02:19:45;;;;;;;;;;;;;;;3.59;56.03;93830.56;2055588;70;20050;-77
2022/03/20 02:22:11;;;;;;;;;;;;;;;3.47;56.74;93826.50;2055880;69;20066;-76
2022/03/20 02:24:40;;;;;;;;;;;;;;;3.18;58.24;93822.78;2055181;69;20053;-74
2022/03/20 02:27:12;;;;;;;;;;;;;;;3.26;58.76;93821.63;2055532;70;20049;-75
2022/03/20 02:29:39;;;;;;;;;;;;;;;3.55;55.58;93819.00;2055317;69;20055;-74
2022/03/20 02:32:06;;;;;;;;;;;;;;;3.36;56.89;93833.06;2068253;69;20055;-75
2022/03/20 02:34:32;;;;;;;;;;;;;;;3.26;57.82;93826.44;2055731;69;20509;-76
2022/03/20 02:36:59;;;;;;;;;;;;;;;3.09;59.70;93820.44;2055829;69;20065;-75
2022/03/20 02:39:24;;;;;;;;;;;;;;;3.32;57.45;93832.63;2055775;69;20085;-76
2022/03/20 02:41:50;;;;;;;;;;;;;;;3.10;59.83;93828.25;2056026;70;20077;-76
2022/03/20 02:44:16;;;;;;;;;;;;;;;3.27;58.12;93830.72;2056174;70;20057;-76
2022/03/20 02:46:42;;;;;;;;;;;;;;;3.31;57.54;93833.91;2055775;69;20058;-77
2022/03/20 02:49:10;;;;;;;;;;;;;;;3.29;57.04;93831.66;2055682;70;20056;-78
2022/03/20 02:51:36;;;;;;;;;;;;;;;3.20;58.69;93834.13;2068366;69;20050;-77
2022/03/20 02:54:05;;;;;;;;;;;;;;;3.13;58.18;93835.53;2055365;69;20062;-77
2022/03/20 02:56:32;;;;;;;;;;;;;;;3.10;57.85;93833.81;2055179;69;20125;-77
2022/03/20 02:58:58;;;;;;;;;;;;;;;3.14;58.19;93842.59;2068577;69;20058;-75
2022/03/20 03:01:24;;;;;;;;;;;;;;;3.25;57.24;93842.38;2055061;70;20046;-74
2022/03/20 03:03:50;;;;;;;;;;;;;;;3.18;58.25;93842.28;2055228;70;20147;-76
2022/03/20 03:06:16;;;;;;;;;;;;;;;3.35;55.98;93841.94;2068100;69;20153;-75
2022/03/20 03:11:39;;;;;;;;;;;;;;;3.42;55.78;93847.59;2059641;69;20103;-75
2022/03/20 03:15:19;;;;;;;;;;;;;;;3.07;58.53;93848.81;2055005;70;20094;-74
2022/03/20 03:16:50;;;;;;;;;;;;;;;2.79;60.11;93852.84;2055226;69;20077;-75
2022/03/20 03:19:16;;;;;;;;;;;;;;;3.16;57.44;93844.81;2055216;69;20046;-75
2022/03/20 03:21:42;;;;;;;;;;;;;;;3.19;58.66;93854.91;2055040;70;20070;-78
2022/03/20 03:24:09;;;;;;;;;;;;;;;2.97;58.72;93850.50;2068112;69;20058;-78
2022/03/20 03:26:34;;;;;;;;;;;;;;;3.21;56.66;93852.34;2055976;70;20054;-78
2022/03/20 03:29:00;;;;;;;;;;;;;;;3.30;55.72;93858.22;2055540;70;20189;-79
2022/03/20 03:31:25;;;;;;;;;;;;;;;3.19;56.92;93868.81;2054579;70;20069;-79
2022/03/20 03:36:36;;;;;;;;;;;;;;;3.07;57.86;93862.72;2055630;70;20510;-78
2022/03/20 03:39:01;;;;;;;;;;;;;;;2.97;58.16;93864.41;2055682;69;20106;-78
2022/03/20 03:41:27;;;;;;;;;;;;;;;3.03;57.56;93862.28;2055769;70;20085;-78
2022/03/20 03:43:53;;;;;;;;;;;;;;;2.91;58.15;93869.31;2055558;69;20800;-74
2022/03/20 03:46:19;;;;;;;;;;;;;;;2.91;58.31;93870.06;2055851;70;20062;-76
2022/03/20 03:48:45;;;;;;;;;;;;;;;2.88;58.44;93870.38;2055684;70;20054;-75
2022/03/20 03:51:10;;;;;;;;;;;;;;;2.79;58.34;93866.75;2054371;70;20062;-74
2022/03/20 03:53:36;;;;;;;;;;;;;;;2.74;59.40;93869.59;2054909;69;20059;-74
2022/03/20 03:56:02;;;;;;;;;;;;;;;2.70;58.25;93869.94;2055154;70;20518;-77
2022/03/20 03:58:27;;;;;;;;;;;;;;;2.63;58.40;93869.81;2053706;69;20052;-75
2022/03/20 04:00:52;;;;;;;;;;;;;;;2.95;56.03;93873.28;2054943;70;20042;-79
2022/03/20 04:03:18;;;;;;;;;;;;;;;2.85;57.66;93869.44;2055715;70;20161;-78
2022/03/20 04:05:43;;;;;;;;;;;;;;;2.75;57.00;93874.66;2055841;70;20058;-78
2022/03/20 04:08:09;;;;;;;;;;;;;;;2.74;58.25;93869.59;2055585;70;20056;-79
2022/03/20 04:10:35;;;;;;;;;;;;;;;2.64;58.48;93866.47;2055690;70;20046;-80
2022/03/20 04:13:02;;;;;;;;;;;;;;;2.61;59.67;93872.34;2055495;70;20074;-79
2022/03/20 04:15:27;;;;;;;;;;;;;;;2.74;57.44;93881.47;2055708;70;20058;-76
2022/03/20 04:17:53;;;;;;;;;;;;;;;2.93;56.19;93883.44;2055757;70;20053;-79
2022/03/20 04:20:19;;;;;;;;;;;;;;;2.49;59.83;93886.44;2055695;69;20054;-79
2022/03/20 04:23:42;;;;;;;;;;;;;;;2.32;59.04;93885.19;2068158;69;20397;-75
2022/03/20 04:25:30;;;;;;;;;;;;;;;2.43;58.50;93890.56;2055701;69;20442;-75
2022/03/20 04:27:56;;;;;;;;;;;;;;;2.39;57.96;93890.16;2055673;70;20062;-74
2022/03/20 04:30:25;;;;;;;;;;;;;;;2.44;59.05;93890.06;2055595;70;20174;-75
2022/03/20 04:32:52;;;;;;;;;;;;;;;2.19;59.61;93883.13;2068560;69;20433;-77
2022/03/20 04:35:18;;;;;;;;;;;;;;;2.34;59.12;93893.75;2055736;70;20451;-75
2022/03/20 04:37:44;;;;;;;;;;;;;;;2.32;58.85;93888.72;2055775;69;20097;-76
2022/03/20 04:40:10;;;;;;;;;;;;;;;2.40;57.99;93888.88;2068645;69;20104;-77
2022/03/20 04:42:36;;;;;;;;;;;;;;;2.31;59.10;93884.44;2068585;69;20046;-76
2022/03/20 04:45:02;;;;;;;;;;;;;;;2.40;58.74;93881.28;2055555;70;20482;-78
2022/03/20 04:58:30;;;;;;;;;;;;;;;2.23;59.01;93889.13;2055559;69;20050;-79
2022/03/20 05:00:56;;;;;;;;;;;;;;;2.19;58.85;93899.78;2055526;70;20145;-80
2022/03/20 05:03:22;;;;;;;;;;;;;;;2.04;59.08;93895.44;2055558;70;20165;-80
2022/03/20 05:05:47;;;;;;;;;;;;;;;2.20;57.92;93893.72;2055612;70;20064;-79
2022/03/20 05:08:13;;;;;;;;;;;;;;;2.34;57.57;93897.31;2055669;70;20057;-75
2022/03/20 05:13:23;;;;;;;;;;;;;;;2.01;59.58;93904.06;2066581;69;20050;-78
2022/03/20 05:15:49;;;;;;;;;;;;;;;2.08;59.22;93906.25;2055446;70;20046;-78
2022/03/20 05:18:14;;;;;;;;;;;;;;;2.32;57.45;93907.44;2055613;69;20492;-79
2022/03/20 05:20:43;;;;;;;;;;;;;;;2.48;55.61;93907.19;2068642;69;20110;-78
2022/03/20 05:23:09;;;;;;;;;;;;;;;2.22;58.13;93904.28;2068486;69;20482;-78
2022/03/20 05:25:35;;;;;;;;;;;;;;;2.22;57.33;93909.84;2068521;69;20047;-79
2022/03/20 05:28:00;;;;;;;;;;;;;;;2.25;57.57;93908.81;2055619;70;20047;-78
2022/03/20 05:30:26;;;;;;;;;;;;;;;2.04;59.06;93914.13;2068464;69;20501;-77
2022/03/20 05:32:52;;;;;;;;;;;;;;;2.08;58.18;93917.38;2055543;70;20147;-78
2022/03/20 05:35:17;;;;;;;;;;;;;;;2.09;58.29;93916.09;2055503;70;20138;-78
2022/03/20 05:37:43;;;;;;;;;;;;;;;2.07;58.37;93913.09;2055463;70;20141;-78
2022/03/20 05:40:09;;;;;;;;;;;;;;;2.21;57.85;93917.44;2055559;69;20415;-78
2022/03/20 05:42:36;;;;;;;;;;;;;;;2.06;58.39;93924.72;2055491;70;20474;-75
2022/03/20 05:45:02;;;;;;;;;;;;;;;2.16;57.12;93921.06;2055481;69;20545;-77
2022/03/20 05:47:31;;;;;;;;;;;;;;;2.00;58.04;93910.91;2068723;69;20059;-74
2022/03/20 05:50:03;;;;;;;;;;;;;;;2.15;57.25;93922.31;2055827;70;20054;-74
2022/03/20 05:52:32;;;;;;;;;;;;;;;2.03;58.76;93923.75;2055444;70;20054;-73
2022/03/20 05:54:58;;;;;;;;;;;;;;;2.15;57.45;93924.34;2055515;70;20061;-74
2022/03/20 06:00:16;;;;;;;;;;;;;;;2.06;59.07;93924.72;2055529;69;20515;-76
2022/03/20 06:02:50;;;;;;;;;;;;;;;2.23;58.23;93917.66;2055587;70;20066;-76
2022/03/20 06:05:16;;;;;;;;;;;;;;;2.11;58.10;93919.09;2068534;69;20058;-76
2022/03/20 06:07:43;;;;;;;;;;;;;;;2.16;58.59;93929.38;2055618;70;20050;-75
2022/03/20 06:10:18;;;;;;;;;;;;;;;2.16;58.71;93925.84;2055699;70;20057;-77
2022/03/20 06:12:44;;;;;;;;;;;;;;;2.24;58.12;93929.50;2055412;70;20051;-74
2022/03/20 06:15:10;;;;;;;;;;;;;;;2.11;58.34;93935.00;2055371;70;20049;-77
2022/03/20 06:17:39;;;;;;;;;;;;;;;2.18;58.79;93932.38;2055419;69;20491;-74
2022/03/20 06:20:06;;;;;;;;;;;;;;;2.07;59.34;93948.47;2055372;70;20515;-75
2022/03/20 06:22:32;;;;;;;;;;;;;;;2.16;57.90;93940.50;2055405;70;20120;-76
2022/03/20 06:24:57;;;;;;;;;;;;;;;2.16;58.07;93942.53;2055379;70;20506;-79
2022/03/20 06:27:23;;;;;;;;;;;;;;;2.20;57.99;93943.72;2055463;70;20054;-76
2022/03/20 06:29:48;;;;;;;;;;;;;;;2.32;58.17;93947.09;2068254;69;20100;-75
2022/03/20 06:32:15;;;;;;;;;;;;;;;2.34;58.15;93952.88;2055447;70;20054;-75
2022/03/20 06:34:42;;;;;;;;;;;;;;;2.33;58.48;93956.91;2055468;70;20055;-77
2022/03/20 06:37:08;;;;;;;;;;;;;;;2.22;57.55;93946.72;2068834;69;20072;-76
2022/03/20 06:39:33;;;;;;;;;;;;;;;2.33;57.97;93956.19;2055807;70;20479;-75
2022/03/20 06:42:00;;;;;;;;;;;;;;;2.29;58.61;93948.91;2068935;69;20050;-76
2022/03/20 06:44:25;;;;;;;;;;;;;;;2.39;58.15;93951.31;2068784;69;20139;-78
2022/03/20 06:46:51;;;;;;;;;;;;;;;2.57;57.22;93961.66;2055794;70;20498;-78
2022/03/20 06:49:17;;;;;;;;;;;;;;;2.80;54.53;93962.06;2055849;70;20046;-76
2022/03/20 06:51:42;;;;;;;;;;;;;;;2.64;56.64;93960.28;2055914;69;20051;-78
2022/03/20 06:54:08;;;;;;;;;;;;;;;2.52;57.77;93960.47;2068858;69;20462;-77
2022/03/20 06:56:34;;;;;;;;;;;;;;;2.61;57.47;93962.09;2055944;69;20123;-77
2022/03/20 06:58:59;;;;;;;;;;;;;;;2.59;57.46;93958.34;2068658;69;20062;-78
2022/03/20 07:01:26;;;;;;;;;;;;;;;2.70;56.40;93969.28;2055841;70;20064;-75
2022/03/20 07:03:52;;;;;;;;;;;;;;;2.61;57.10;93970.44;2055781;70;20066;-79
2022/03/20 07:06:18;;;;;;;;;;;;;;;2.47;56.54;93966.06;2068847;69;20133;-75
2022/03/20 07:08:44;;;;;;;;;;;;;;;2.52;57.98;93977.13;2055825;70;20169;-76
2022/03/20 07:11:09;;;;;;;;;;;;;;;2.62;57.85;93969.16;2055750;70;20479;-75
2022/03/20 07:13:52;;;;;;;;;;;;;;;2.69;57.38;93978.91;2055801;70;20050;-76
2022/03/20 07:16:19;;;;;;;;;;;;;;;2.55;58.03;93976.06;2068793;69;20423;-79
2022/03/20 07:18:48;;;;;;;;;;;;;;;2.74;56.97;93978.06;2055837;70;20062;-77
2022/03/20 07:21:14;;;;;;;;;;;;;;;2.98;55.68;93982.75;2055800;70;20054;-76
2022/03/20 07:23:40;;;;;;;;;;;;;;;2.87;57.63;93977.38;2055805;70;20054;-78
2022/03/20 07:31:33;;;;;;;;;;;;;;;3.07;57.03;93979.59;2055849;70;20046;-79
2022/03/20 07:33:59;;;;;;;;;;;;;;;3.15;56.95;93977.66;2055879;70;20077;-77
2022/03/20 07:36:24;;;;;;;;;;;;;;;3.21;56.69;93981.09;2055723;70;20046;-78
2022/03/20 07:38:50;;;;;;;;;;;;;;;3.19;56.05;93988.47;2055864;70;20383;-80
2022/03/20 07:41:16;;;;;;;;;;;;;;;3.33;56.31;93987.22;2055666;70;20042;-79
2022/03/20 07:43:41;;;;;;;;;;;;;;;4.11;53.31;93975.88;2055717;70;20498;-79
2022/03/20 07:46:08;;;;;;;;;;;;;;;4.42;53.17;93974.97;2055852;70;20046;-76
2022/03/20 07:48:34;;;;;;;;;;;;;;;4.89;51.99;93974.16;2055738;70;20054;-75
2022/03/20 07:51:00;;;;;;;;;;;;;;;4.98;52.52;93972.94;2068729;69;20407;-76
2022/03/20 07:53:26;;;;;;;;;;;;;;;5.13;52.97;93972.31;2055824;70;20472;-79
2022/03/20 07:55:52;;;;;;;;;;;;;;;5.65;52.32;93974.06;2055728;69;20147;-76
2022/03/20 07:58:18;;;;;;;;;;;;;;;5.65;51.39;93970.53;2055699;69;20101;-78
2022/03/20 08:00:44;;;;;;;;;;;;;;;6.39;50.21;93967.97;2055546;69;20119;-78
2022/03/20 08:03:09;;;;;;;;;;;;;;;6.60;49.93;93963.03;2055645;70;20073;-77
2022/03/20 08:05:35;;;;;;;;;;;;;;;6.98;49.64;93962.38;2055751;70;20088;-79
2022/03/20 08:08:02;;;;;;;;;;;;;;;7.39;47.63;93961.28;2055686;70;20487;-79
2022/03/20 08:10:29;;;;;;;;;;;;;;;7.59;47.29;93958.84;2068457;69;20509;-78
2022/03/20 08:12:54;;;;;;;;;;;;;;;8.01;47.03;93961.97;2055744;69;20141;-79
2022/03/20 08:15:20;;;;;;;;;;;;;;;8.55;45.36;93953.41;2055532;70;20057;-76
2022/03/20 08:17:46;;;;;;;;;;;;;;;8.80;45.05;93951.44;2055733;70;20046;-76
2022/03/20 08:20:12;;;;;;;;;;;;;;;9.13;43.57;93948.63;2055611;70;20104;-77
2022/03/20 08:22:38;;;;;;;;;;;;;;;9.72;43.98;93953.59;2055742;70;20459;-78
2022/03/20 08:25:04;;;;;;;;;;;;;;;9.80;40.37;93961.97;2068607;69;20053;-78
2022/03/20 08:27:30;;;;;;;;;;;;;;;9.11;41.49;93959.66;2055594;70;20085;-78
2022/03/20 08:29:58;;;;;;;;;;;;;;;9.20;42.95;93955.50;2055483;70;20097;-79
2022/03/20 08:32:24;;;;;;;;;;;;;;;9.98;38.66;93952.22;2068426;69;20054;-78
2022/03/20 08:34:50;;;;;;;;;;;;;;;10.32;39.02;93960.00;2068625;69;20119;-78
2022/03/20 08:37:15;;;;;;;;;;;;;;;10.64;38.19;93956.25;2055607;69;20484;-79
2022/03/20 08:39:41;;;;;;;;;;;;;;;10.74;38.60;93959.13;2055756;70;20520;-78
2022/03/20 08:42:07;;;;;;;;;;;;;;;11.19;37.68;93954.97;2055750;70;20102;-79
2022/03/20 08:44:32;;;;;;;;;;;;;;;12.00;37.03;93951.25;2055465;70;20046;-81
2022/03/20 08:46:58;;;;;;;;;;;;;;;11.71;34.34;93945.50;2055655;70;20145;-76
2022/03/20 08:49:23;;;;;;;;;;;;;;;11.57;33.66;93953.63;2055554;70;20058;-78
2022/03/20 08:51:49;;;;;;;;;;;;;;;12.21;34.13;93948.63;2068541;69;20054;-76
2022/03/20 08:54:14;;;;;;;;;;;;;;;12.82;33.63;93946.69;2055733;70;20050;-77
2022/03/20 08:56:39;;;;;;;;;;;;;;;12.40;33.50;93941.50;2055569;70;20046;-77
2022/03/20 08:59:08;;;;;;;;;;;;;;;13.44;32.86;93948.97;2055247;69;20058;-76
2022/03/20 09:01:34;;;;;;;;;;;;;;;13.78;32.36;93947.78;2055586;69;20046;-78
2022/03/20 09:04:00;;;;;;;;;;;;;;;13.99;31.31;93936.50;2068540;69;20434;-78
2022/03/20 09:06:25;;;;;;;;;;;;;;;12.98;29.70;93936.56;2055547;70;20112;-77
2022/03/20 09:08:51;;;;;;;;;;;;;;;13.29;28.91;93938.03;2055677;70;20078;-80
2022/03/20 09:11:17;;;;;;;;;;;;;;;13.70;30.84;93933.84;2055501;70;20050;-78
2022/03/20 09:13:43;;;;;;;;;;;;;;;13.90;29.68;93931.66;2055367;70;20062;-77
2022/03/20 09:19:07;;;;;;;;;;;;;;;14.58;28.43;93925.56;2055648;70;20074;-80
2022/03/20 09:21:34;;;;;;;;;;;;;;;15.44;27.13;93917.56;2055590;70;20054;-79
2022/03/20 09:24:00;;;;;;;;;;;;;;;14.92;27.03;93917.78;2055542;69;20057;-77
2022/03/20 09:26:26;;;;;;;;;;;;;;;15.14;26.67;93913.53;2055768;70;20058;-76
2022/03/20 09:28:52;;;;;;;;;;;;;;;14.97;26.49;93911.78;2055510;69;20085;-76
2022/03/20 09:31:19;;;;;;;;;;;;;;;15.17;26.77;93911.59;2055481;70;20066;-76
2022/03/20 09:33:44;;;;;;;;;;;;;;;15.57;26.31;93913.34;2055448;69;20054;-76
2022/03/20 09:36:12;;;;;;;;;;;;;;;15.70;26.99;93915.63;2055644;70;20057;-78
2022/03/20 09:38:38;;;;;;;;;;;;;;;16.68;26.93;93912.16;2055500;70;20054;-77
2022/03/20 09:41:07;;;;;;;;;;;;;;;15.81;24.97;93907.75;2055463;70;20058;-77
2022/03/20 09:43:33;;;;;;;;;;;;;;;15.38;24.95;93905.81;2055467;69;20046;-76
2022/03/20 09:45:59;;;;;;;;;;;;;;;16.89;25.89;93911.94;2055440;70;20058;-78
2022/03/20 09:48:26;;;;;;;;;;;;;;;16.59;24.22;93915.88;2055510;69;20085;-80
2022/03/20 09:50:52;;;;;;;;;;;;;;;17.01;24.23;93903.38;2055412;70;20514;-78
2022/03/20 09:53:17;;;;;;;;;;;;;;;17.23;24.45;93906.72;2055331;70;20595;-78
2022/03/20 09:55:43;;;;;;;;;;;;;;;17.45;23.75;93912.88;2055400;70;20054;-79
2022/03/20 09:58:09;;;;;;;;;;;;;;;17.05;22.91;93903.59;2055429;69;20168;-75
2022/03/20 10:00:34;;;;;;;;;;;;;;;18.30;24.25;93911.00;2068342;69;20145;-76
2022/03/20 10:03:13;;;;;;;;;;;;;;;19.13;22.12;93908.72;2055394;69;20425;-76
2022/03/20 10:05:40;;;;;;;;;;;;;;;18.63;22.98;93907.66;2068403;69;20050;-76
2022/03/20 10:08:19;;;;;;;;;;;;;;;18.34;21.62;93894.09;2055368;70;20057;-76
2022/03/20 10:10:47;;;;;;;;;;;;;;;19.02;22.42;93898.94;2055469;70;20049;-76
2022/03/20 10:13:13;;;;;;;;;;;;;;;18.86;20.83;93891.69;2055910;70;20061;-76
2022/03/20 10:15:38;;;;;;;;;;;;;;;17.51;21.06;93887.59;2068793;69;20081;-76
2022/03/20 10:18:08;;;;;;;;;;;;;;;17.92;21.56;93898.34;2055883;69;20171;-77
2022/03/20 10:20:37;;;;;;;;;;;;;;;19.09;20.29;93891.41;2055250;69;20093;-75
2022/03/20 10:23:24;;;;;;;;;;;;;;;18.78;20.28;93892.78;2055480;69;20058;-75
2022/03/20 10:25:51;;;;;;;;;;;;;;;19.51;20.14;93891.94;2055666;69;20062;-76
2022/03/20 10:28:16;;;;;;;;;;;;;;;17.52;20.98;93883.38;2055485;69;20050;-76
2022/03/20 10:30:54;;;;;;;;;;;;;;;19.33;19.42;93886.09;2055441;70;20057;-75
2022/03/20 10:33:21;;;;;;;;;;;;;;;20.41;20.08;93879.53;2055579;70;20046;-77
2022/03/20 10:36:06;;;;;;;;;;;;;;;20.43;18.97;93879.63;2055626;70;20436;-75
2022/03/20 10:38:37;;;;;;;;;;;;;;;20.23;19.64;93868.06;2055609;70;20086;-75
2022/03/20 10:41:15;;;;;;;;;;;;;;;19.88;19.36;93871.50;2055553;70;20434;-76
2022/03/20 10:43:41;;;;;;;;;;;;;;;20.57;18.39;93873.78;2055444;69;20058;-75
2022/03/20 10:46:07;;;;;;;;;;;;;;;19.36;18.14;93870.53;2055614;69;20078;-75
2022/03/20 10:48:32;;;;;;;;;;;;;;;20.53;18.66;93865.81;2055578;69;20401;-76
2022/03/20 10:50:58;;;;;;;;;;;;;;;21.37;17.53;93874.19;2055732;69;20456;-75
2022/03/20 10:53:24;;;;;;;;;;;;;;;21.70;16.54;93867.59;2055678;69;20145;-75
2022/03/20 10:55:54;;;;;;;;;;;;;;;20.49;17.97;93864.88;2068750;69;20643;-75
2022/03/20 10:58:22;;;;;;;;;;;;;;;21.86;16.07;93862.47;2055724;70;20161;-77
2022/03/20 11:00:47;;;;;;;;;;;;;;;22.78;16.78;93863.59;2055589;70;20046;-76
2022/03/20 11:03:19;;;;;;;;;;;;;;;22.85;17.36;93853.03;2055526;70;20056;-76
2022/03/20 11:05:45;;;;;;;;;;;;;;;23.14;15.63;93851.13;2055574;70;20054;-75
2022/03/20 11:08:11;;;;;;;;;;;;;;;24.90;16.14;93857.69;2055437;70;20070;-76
2022/03/20 11:10:36;;;;;;;;;;;;;;;24.26;15.16;93845.88;2055333;69;20153;-75
2022/03/20 11:13:03;;;;;;;;;;;;;;;25.04;15.36;93849.41;2055651;69;20066;-75
2022/03/20 11:15:29;;;;;;;;;;;;;;;25.57;13.67;93842.03;2055541;70;20074;-76
2022/03/20 11:17:56;;;;;;;;;;;;;;;27.73;14.25;93848.31;2055501;70;20051;-77
2022/03/20 11:20:22;;;;;;;;;;;;;;;28.11;13.06;93847.38;2055475;69;20066;-77
2022/03/20 11:22:49;;;;;;;;;;;;;;;26.97;13.55;93837.66;2055370;70;20053;-77
2022/03/20 11:25:21;;;;;;;;;;;;;;;30.31;12.55;93829.06;2055565;70;20085;-76
2022/03/20 11:27:50;;;;;;;;;;;;;;;31.07;10.52;93844.56;2055645;69;20501;-75
2022/03/20 11:30:18;;;;;;;;;;;;;;;29.30;12.24;93829.13;2055332;69;20481;-76
2022/03/20 11:32:46;;;;;;;;;;;;;;;29.12;11.40;93826.78;2055493;70;20485;-76
2022/03/20 11:35:11;;;;;;;;;;;;;;;27.76;11.12;93814.34;2055446;70;20042;-76
2022/03/20 11:37:44;;;;;;;;;;;;;;;29.38;11.73;93805.97;2068556;69;20049;-76
2022/03/20 11:40:15;;;;;;;;;;;;;;;29.35;11.43;93813.19;2055537;69;20560;-76
2022/03/20 11:42:42;;;;;;;;;;;;;;;29.60;12.35;93805.44;2055655;69;20055;-75
2022/03/20 11:45:10;;;;;;;;;;;;;;;30.45;12.41;93801.53;2055443;70;20544;-76
2022/03/20 11:47:39;;;;;;;;;;;;;;;30.87;10.79;93804.53;2055591;70;20133;-76
2022/03/20 11:50:14;;;;;;;;;;;;;;;31.94;11.07;93801.66;2055439;70;20089;-76
2022/03/20 11:52:46;;;;;;;;;;;;;;;31.89;11.13;93798.03;2055486;69;20059;-76
2022/03/20 11:55:38;;;;;;;;;;;;;;;31.95;10.33;93794.38;2055281;70;20085;-76
2022/03/20 11:58:08;;;;;;;;;;;;;;;31.24;10.97;93783.50;2051482;70;20081;-76
2022/03/20 12:00:36;;;;;;;;;;;;;;;32.78;11.26;93791.13;2055201;70;20537;-76
2022/03/20 12:03:11;;;;;;;;;;;;;;;33.76;9.60;93793.31;2055588;69;20073;-76
2022/03/20 12:05:36;;;;;;;;;;;;;;;33.03;9.38;93788.06;2055486;70;20503;-76
2022/03/20 12:08:08;;;;;;;;;;;;;;;32.16;10.48;93771.72;2055416;69;20173;-76
2022/03/20 12:10:52;;;;;;;;;;;;;;;33.03;10.46;93767.63;2055574;70;20133;-77
2022/03/20 12:13:17;;;;;;;;;;;;;;;29.14;10.81;93763.03;2068548;69;20046;-80
2022/03/20 12:15:44;;;;;;;;;;;;;;;32.88;11.37;93769.91;2055394;70;20057;-76
2022/03/20 12:18:11;;;;;;;;;;;;;;;32.64;10.16;93762.06;2055370;70;20070;-78
2022/03/20 12:20:52;;;;;;;;;;;;;;;32.23;10.05;93756.41;2068200;69;20058;-77
2022/03/20 12:23:38;;;;;;;;;;;;;;;32.79;9.90;93757.56;2055228;70;20089;-77
2022/03/20 12:26:22;;;;;;;;;;;;;;;29.19;11.71;93747.13;2055556;69;20050;-77
2022/03/20 12:28:49;;;;;;;;;;;;;;;31.60;10.73;93750.75;2055371;70;20053;-76
2022/03/20 12:31:37;;;;;;;;;;;;;;;30.53;12.03;93744.16;2055399;69;20520;-77
2022/03/20 12:34:19;;;;;;;;;;;;;;;33.27;11.17;93752.88;2056976;69;20126;-76
2022/03/20 12:36:45;;;;;;;;;;;;;;;33.65;9.97;93748.16;2055314;69;20517;-76
2022/03/20 12:39:11;;;;;;;;;;;;;;;33.38;9.62;93747.66;2055410;69;20066;-77
2022/03/20 12:41:36;;;;;;;;;;;;;;;35.09;10.04;93753.69;2055326;69;20046;-77
2022/03/20 12:44:07;;;;;;;;;;;;;;;34.95;9.91;93745.13;2068285;69;20181;-77
2022/03/20 12:46:37;;;;;;;;;;;;;;;36.43;9.55;93741.81;2055543;70;20475;-78
2022/03/20 12:49:03;;;;;;;;;;;;;;;36.41;9.39;93750.63;2055341;69;20109;-76
2022/03/20 12:51:33;;;;;;;;;;;;;;;36.04;8.20;93750.63;2055204;70;20152;-77
2022/03/20 12:54:15;;;;;;;;;;;;;;;35.76;8.75;93743.81;2055399;70;20497;-77
2022/03/20 12:56:54;;;;;;;;;;;;;;;36.05;9.06;93744.00;2055337;69;20101;-77
2022/03/20 12:59:20;;;;;;;;;;;;;;;35.84;8.59;93734.16;2055200;70;20473;-76
2022/03/20 13:01:46;;;;;;;;;;;;;;;35.64;9.19;93729.38;2055153;69;20057;-76
2022/03/20 13:04:20;;;;;;;;;;;;;;;36.90;8.56;93738.56;2068063;69;20066;-77
2022/03/20 13:06:47;;;;;;;;;;;;;;;36.89;9.25;93727.59;2055121;70;20068;-77
2022/03/20 13:09:13;;;;;;;;;;;;;;;37.22;8.02;93718.78;2055349;69;20099;-77
2022/03/20 13:11:56;;;;;;;;;;;;;;;37.95;8.17;93722.06;2055023;70;20053;-77
2022/03/20 13:14:23;;;;;;;;;;;;;;;35.96;8.55;93718.56;2055207;70;20058;-77
2022/03/20 13:16:48;;;;;;;;;;;;;;;32.99;8.37;93715.16;2055232;70;20501;-76
2022/03/20 13:19:23;;;;;;;;;;;;;;;34.58;9.25;93704.72;2055181;69;20164;-77
2022/03/20 13:21:49;;;;;;;;;;;;;;;34.64;7.92;93708.28;2055249;70;20061;-76
2022/03/20 13:24:25;;;;;;;;;;;;;;;37.37;7.52;93702.22;2055152;70;20070;-75